Portada
METAR-TAF:

METAR-TAF

Aeroports :

Rahim Yar Khan, Pakistan

latitud: 28-23-02N, longitud: 70-16-47E, altitud: 83 m

METAR: manca

Hora: 03:21 (22:21 UTC)

Pronòstic

L'informe es va fer fa 6 hores i 36 minuts, a les 15:45 UTC
Pronòstic vàlid del 27 a les 18 UTC al 28 a les 12 UTC
Vent 8 kt del Nord-Est
Visibilitat: 3500 m
Escasses núvols a una alçada de 10000 ft
fum
Probabilitat 30% :
Temporalment
l' 28 a les 00 UTC al 28 a les 04 UTC
Vent 5 kt del Oest
Visibilitat: 2000 m
fum

TAF: OPRK 271545Z 2718/2812 05008KT 3500 FU FEW100 TN18/2801Z TX32/2810Z PROB30 TEMPO 2800/2804 27005KT 2000 FU NSC

Observacions i pronòstics meteorològics de més de 4000 aeroports (METAR i TAF).

Les estacions disponibles són els punts grocs i vermells al mapa.

Posi el ratolí al punt desitjat per veure el nom de l'estació.

Feu clic per veure les observacions i els pronòstics meteorològics.

Per canviar el mapa: feu clic els botons verds amb una creu de color negre per apropar; al botó verd amb un guió per allunyar la imatge; o en les fletxes verdes per a mapes adjacents.


METAR-TAF: